createdAt,value
2019-06-08T00:02:38.857Z,24.70
2019-06-08T00:07:57.638Z,24.60
2019-06-08T00:13:13.466Z,24.50
2019-06-08T00:18:29.819Z,24.50
2019-06-08T00:23:45.863Z,24.40
2019-06-08T00:29:01.538Z,24.30
2019-06-08T00:34:18.462Z,24.20
2019-06-08T00:39:34.591Z,24.20
2019-06-08T00:44:50.123Z,24.10
2019-06-08T00:50:06.325Z,24.00
2019-06-08T00:55:23.674Z,23.90
2019-06-08T01:00:39.679Z,23.90
2019-06-08T01:05:55.264Z,23.80
2019-06-08T01:11:11.234Z,23.80
2019-06-08T01:16:27.070Z,23.70
2019-06-08T01:21:42.868Z,23.60
2019-06-08T01:26:58.601Z,23.60
2019-06-08T01:32:14.224Z,23.50
2019-06-08T01:37:31.232Z,23.40
2019-06-08T01:42:47.215Z,23.40
2019-06-08T01:48:18.591Z,23.30
2019-06-08T01:53:23.198Z,23.20
2019-06-08T01:58:38.805Z,23.20
2019-06-08T02:03:54.808Z,23.10
2019-06-08T02:09:11.155Z,23.00
2019-06-08T02:14:27.148Z,23.00
2019-06-08T02:19:43.210Z,22.90
2019-06-08T02:24:58.918Z,22.80
2019-06-08T02:30:18.134Z,22.80
2019-06-08T02:35:35.278Z,22.70
2019-06-08T02:40:51.673Z,22.70
2019-06-08T02:46:07.719Z,22.60
2019-06-08T02:51:23.851Z,22.50
2019-06-08T02:56:42.182Z,22.50
2019-06-08T03:01:59.548Z,22.40
2019-06-08T03:07:17.683Z,22.40
2019-06-08T03:12:35.143Z,22.30
2019-06-08T03:17:51.487Z,22.20
2019-06-08T03:23:07.374Z,22.20
2019-06-08T03:28:23.073Z,22.10
2019-06-08T03:33:46.225Z,22.10
2019-06-08T03:38:55.932Z,22.00
2019-06-08T03:44:11.712Z,22.00
2019-06-08T03:49:41.139Z,21.90
2019-06-08T03:54:47.054Z,21.90
2019-06-08T04:00:12.595Z,21.80
2019-06-08T04:05:21.232Z,21.70
2019-06-08T04:10:37.606Z,21.70
2019-06-08T04:15:53.565Z,21.60
2019-06-08T04:21:09.411Z,21.60
2019-06-08T04:26:25.486Z,21.50
2019-06-08T04:31:41.860Z,21.50
2019-06-08T04:36:57.610Z,21.40
2019-06-08T04:42:14.268Z,21.40
2019-06-08T04:47:29.945Z,21.30
2019-06-08T04:52:47.460Z,21.30
2019-06-08T04:58:03.367Z,21.20
2019-06-08T05:03:19.354Z,21.10
2019-06-08T05:08:36.522Z,21.10
2019-06-08T05:13:52.558Z,21.10
2019-06-08T05:19:08.247Z,21.00
2019-06-08T05:24:23.977Z,21.00
2019-06-08T05:29:41.268Z,20.90
2019-06-08T05:34:57.588Z,20.90
2019-06-08T05:40:13.438Z,20.80
2019-06-08T05:45:29.383Z,20.80
2019-06-08T05:51:00.206Z,20.80
2019-06-08T05:56:02.959Z,20.70
2019-06-08T06:01:18.553Z,20.70
2019-06-08T06:06:34.190Z,20.70
2019-06-08T06:11:51.168Z,20.60
2019-06-08T06:17:07.400Z,20.60
2019-06-08T06:22:23.001Z,20.50
2019-06-08T06:27:38.626Z,20.50
2019-06-08T06:32:54.312Z,20.50
2019-06-08T06:38:10.285Z,20.50
2019-06-08T06:43:25.855Z,20.40
2019-06-08T06:48:42.065Z,20.40
2019-06-08T06:53:58.658Z,20.40
2019-06-08T06:59:15.120Z,20.40
2019-06-08T07:04:30.882Z,20.30
2019-06-08T07:09:46.631Z,20.30
2019-06-08T07:15:02.253Z,20.30
2019-06-08T07:20:19.604Z,20.30
2019-06-08T07:25:35.321Z,20.30
2019-06-08T07:30:52.698Z,20.30
2019-06-08T07:36:08.561Z,20.20
2019-06-08T07:41:24.453Z,20.20
2019-06-08T07:46:40.343Z,20.20
2019-06-08T07:52:07.434Z,20.20
2019-06-08T07:57:13.633Z,20.20
2019-06-08T08:02:29.528Z,20.10
2019-06-08T08:07:45.132Z,20.20
2019-06-08T08:13:01.218Z,20.10
2019-06-08T08:18:16.614Z,20.20
2019-06-08T08:23:32.191Z,20.20
2019-06-08T08:28:50.022Z,20.20
2019-06-08T08:34:06.149Z,20.20
2019-06-08T08:39:24.048Z,20.20
2019-06-08T08:44:41.060Z,20.20
2019-06-08T08:49:59.127Z,20.20
2019-06-08T08:55:20.201Z,20.10
2019-06-08T09:00:33.067Z,20.10
2019-06-08T09:05:51.980Z,20.20
2019-06-08T09:11:08.401Z,20.10
2019-06-08T09:16:29.340Z,20.10
2019-06-08T09:21:44.937Z,20.10
2019-06-08T09:27:03.706Z,20.10
2019-06-08T09:32:18.116Z,20.10
2019-06-08T09:37:34.049Z,20.20
2019-06-08T09:42:53.699Z,20.20
2019-06-08T09:48:09.391Z,20.20
2019-06-08T09:53:34.178Z,20.20
2019-06-08T09:58:43.329Z,20.20
2019-06-08T10:04:02.039Z,20.20
2019-06-08T10:09:18.454Z,20.20
2019-06-08T10:14:33.312Z,20.20
2019-06-08T10:19:49.168Z,20.20
2019-06-08T10:25:07.967Z,20.30
2019-06-08T10:30:22.087Z,20.30
2019-06-08T10:35:38.225Z,20.30
2019-06-08T10:41:10.466Z,20.40
2019-06-08T10:46:21.117Z,20.40
2019-06-08T10:51:40.215Z,20.40
2019-06-08T10:56:54.893Z,20.50
2019-06-08T11:02:13.845Z,20.50
2019-06-08T11:07:28.076Z,20.60
2019-06-08T11:12:44.078Z,20.60
2019-06-08T11:18:04.540Z,20.70
2019-06-08T11:23:19.095Z,20.70
2019-06-08T11:28:34.728Z,20.80
2019-06-08T11:33:50.447Z,20.90
2019-06-08T11:39:10.974Z,21.00
2019-06-08T11:44:27.446Z,21.00
2019-06-08T11:49:42.685Z,21.20
2019-06-08T11:55:01.739Z,21.30
2019-06-08T12:00:31.067Z,21.40
2019-06-08T12:05:47.762Z,21.50
2019-06-08T12:11:05.541Z,21.60
2019-06-08T12:16:22.411Z,21.80
2019-06-08T12:21:38.110Z,21.90
2019-06-08T12:27:00.287Z,22.10
2019-06-08T12:32:12.421Z,22.30
2019-06-08T12:37:28.341Z,22.40
2019-06-08T12:42:44.431Z,22.50
2019-06-08T12:48:00.154Z,22.70
2019-06-08T12:53:20.179Z,22.90
2019-06-08T12:58:34.781Z,23.00
2019-06-08T13:03:50.363Z,23.20
2019-06-08T13:09:10.237Z,23.40
2019-06-08T13:14:30.535Z,23.50
2019-06-08T13:19:49.497Z,23.70
2019-06-08T13:25:19.184Z,23.90
2019-06-08T13:30:26.427Z,24.10
2019-06-08T13:35:42.724Z,24.30
2019-06-08T13:40:59.039Z,24.50
2019-06-08T13:46:15.800Z,24.60
2019-06-08T13:51:32.594Z,24.80
2019-06-08T13:56:50.569Z,25.00
2019-06-08T14:02:06.114Z,25.20
2019-06-08T14:07:26.868Z,25.40
2019-06-08T14:12:39.087Z,25.60
2019-06-08T14:17:54.788Z,25.80
2019-06-08T14:23:10.497Z,25.90
2019-06-08T14:28:28.573Z,26.10
2019-06-08T14:33:43.731Z,26.30
2019-06-08T14:39:02.492Z,26.50
2019-06-08T14:44:21.403Z,26.70
2019-06-08T14:49:38.471Z,26.90
2019-06-08T14:54:54.013Z,27.10
2019-06-08T15:00:12.281Z,27.30
2019-06-08T15:05:30.720Z,27.40
2019-06-08T15:10:45.123Z,27.60
2019-06-08T15:16:00.968Z,27.70
2019-06-08T15:21:17.975Z,28.00
2019-06-08T15:26:42.304Z,28.10
2019-06-08T15:31:58.263Z,28.20
2019-06-08T15:37:14.131Z,28.40
2019-06-08T15:42:31.820Z,28.50
2019-06-08T15:47:48.504Z,28.60
2019-06-08T15:53:04.713Z,28.80
2019-06-08T15:58:20.653Z,28.90
2019-06-08T16:03:36.424Z,29.00
2019-06-08T16:08:51.998Z,29.20
2019-06-08T16:14:07.736Z,29.30
2019-06-08T16:19:23.521Z,29.40
2019-06-08T16:24:39.157Z,29.50
2019-06-08T16:29:54.829Z,29.60
2019-06-08T16:35:10.690Z,29.70
2019-06-08T16:40:27.550Z,29.80
2019-06-08T16:45:43.346Z,29.80
2019-06-08T16:50:59.306Z,29.90
2019-06-08T16:56:14.750Z,30.00
2019-06-08T17:01:30.846Z,30.00
2019-06-08T17:06:56.146Z,30.00
2019-06-08T17:12:12.194Z,30.00
2019-06-08T17:17:27.631Z,30.00
2019-06-08T17:22:46.419Z,29.90
2019-06-08T17:28:02.757Z,29.80
2019-06-08T17:33:19.119Z,29.70
2019-06-08T17:38:35.241Z,29.60
2019-06-08T17:43:51.431Z,29.50
2019-06-08T17:49:08.782Z,29.40
2019-06-08T17:54:24.819Z,29.20
2019-06-08T17:59:41.704Z,29.10
2019-06-08T18:05:00.533Z,29.10
2019-06-08T18:10:17.939Z,29.00
2019-06-08T18:15:38.340Z,28.90
2019-06-08T18:20:52.758Z,28.80
2019-06-08T18:26:09.948Z,28.70
2019-06-08T18:31:27.619Z,28.70
2019-06-08T18:36:51.455Z,28.90
2019-06-08T18:42:08.172Z,29.20
2019-06-08T18:47:27.378Z,29.60
2019-06-08T18:52:49.453Z,29.90
2019-06-08T18:58:16.248Z,30.20
2019-06-08T19:03:21.229Z,30.50
2019-06-08T19:08:40.894Z,30.70
2019-06-08T19:13:54.838Z,30.90
2019-06-08T19:19:10.513Z,31.00
2019-06-08T19:24:28.044Z,31.10
2019-06-08T19:29:45.178Z,31.10
2019-06-08T19:35:01.489Z,31.20
2019-06-08T19:40:19.455Z,31.30
2019-06-08T19:45:35.300Z,31.20
2019-06-08T19:50:54.518Z,31.20
2019-06-08T19:56:17.370Z,31.20
2019-06-08T20:01:33.885Z,31.10
2019-06-08T20:06:50.775Z,31.10
2019-06-08T20:12:08.110Z,31.00
2019-06-08T20:17:24.373Z,31.00
2019-06-08T20:22:40.110Z,30.90
2019-06-08T20:27:58.837Z,30.80
2019-06-08T20:33:14.947Z,30.70
2019-06-08T20:38:37.275Z,30.60
2019-06-08T20:43:50.458Z,30.60
2019-06-08T20:49:08.413Z,30.50
2019-06-08T20:54:24.344Z,30.30
2019-06-08T20:59:40.267Z,30.20
2019-06-08T21:04:56.319Z,30.10
2019-06-08T21:10:11.936Z,30.00
2019-06-08T21:15:27.825Z,29.90
2019-06-08T21:20:45.608Z,29.80
2019-06-08T21:26:03.936Z,29.70
2019-06-08T21:31:20.048Z,29.60
2019-06-08T21:36:37.610Z,29.50
2019-06-08T21:41:56.354Z,29.40
2019-06-08T21:47:10.559Z,29.30
2019-06-08T21:52:26.515Z,29.10
2019-06-08T21:57:42.213Z,29.10
2019-06-08T22:02:58.888Z,28.90
2019-06-08T22:08:17.282Z,28.80
2019-06-08T22:13:33.107Z,28.70
2019-06-08T22:18:49.114Z,28.60
2019-06-08T22:24:04.474Z,28.50
2019-06-08T22:29:20.009Z,28.40
2019-06-08T22:34:37.240Z,28.30
2019-06-08T22:39:53.410Z,28.20
2019-06-08T22:45:09.201Z,28.10
2019-06-08T22:50:27.558Z,28.00
2019-06-08T22:55:43.721Z,27.90
2019-06-08T23:01:02.512Z,27.80
2019-06-08T23:06:17.648Z,27.70
2019-06-08T23:11:34.277Z,27.60
2019-06-08T23:16:50.204Z,27.50
2019-06-08T23:22:08.362Z,27.30
2019-06-08T23:27:24.000Z,27.20
2019-06-08T23:32:39.898Z,27.10
2019-06-08T23:37:56.580Z,27.00
2019-06-08T23:43:17.932Z,26.90
2019-06-08T23:48:33.258Z,26.80
2019-06-08T23:53:49.030Z,26.70
2019-06-08T23:59:07.364Z,26.60
